Time;durP1;ratioP1;P1;durP2;ratioP2;P2;SDS_P1;SDS_P2;PMS_P1;PMS_P2;Temp;Humidity;BMP_temperature;BMP_pressure;BME280_temperature;BME280_humidity;BME280_pressure;Samples;Min_cycle;Max_cycle;Signal;HPM_P1;HPM_P2
2021/03/26 00:01:48;;;;;;;10.50;2.00;;;;;;;;;;6213139;22;20051;-77
2021/03/26 00:04:15;;;;;;;7.90;1.73;;;;;;;;;;6212052;22;20009;-77
2021/03/26 00:06:43;;;;;;;7.53;1.83;;;;;;;;;;6214158;22;20495;-78
2021/03/26 00:09:33;;;;;;;11.48;2.08;;;;;;;;;;6214941;23;20109;-77
2021/03/26 00:12:33;;;;;;;6.85;1.42;;;;;;;;;;6219419;23;20031;-77
2021/03/26 00:14:59;;;;;;;9.75;1.83;;;;;;;;;;6213819;22;20008;-76
2021/03/26 00:17:25;;;;;;;7.57;1.65;;;;;;;;;;6188338;22;20016;-76
2021/03/26 00:19:51;;;;;;;5.22;1.38;;;;;;;;;;6213418;23;20015;-77
2021/03/26 00:22:17;;;;;;;6.32;1.63;;;;;;;;;;6213149;23;20005;-77
2021/03/26 00:24:43;;;;;;;8.23;1.90;;;;;;;;;;6216180;22;20080;-76
2021/03/26 00:27:09;;;;;;;9.18;1.95;;;;;;;;;;6214318;23;20046;-77
2021/03/26 00:29:35;;;;;;;7.95;1.27;;;;;;;;;;6191291;22;20364;-76
2021/03/26 00:32:01;;;;;;;12.77;1.92;;;;;;;;;;6219060;23;20016;-76
2021/03/26 00:34:29;;;;;;;8.13;1.65;;;;;;;;;;6196730;22;20047;-76
2021/03/26 00:36:55;;;;;;;7.35;1.35;;;;;;;;;;6217420;22;20008;-78
2021/03/26 00:39:21;;;;;;;13.45;1.73;;;;;;;;;;6215970;22;20415;-78
2021/03/26 00:41:47;;;;;;;7.32;1.55;;;;;;;;;;6217044;22;20015;-77
2021/03/26 00:44:13;;;;;;;10.35;1.95;;;;;;;;;;6216060;22;20061;-77
2021/03/26 00:46:40;;;;;;;7.75;1.80;;;;;;;;;;6218368;22;20333;-77
2021/03/26 00:49:07;;;;;;;4.40;1.58;;;;;;;;;;6214748;22;20418;-78
2021/03/26 00:51:34;;;;;;;11.27;1.83;;;;;;;;;;6213505;22;20005;-77
2021/03/26 00:54:00;;;;;;;9.95;2.03;;;;;;;;;;6212689;22;20032;-77
2021/03/26 00:56:26;;;;;;;10.75;2.22;;;;;;;;;;6214448;22;20040;-77
2021/03/26 00:58:52;;;;;;;8.98;1.95;;;;;;;;;;6213051;22;20009;-77
2021/03/26 01:01:18;;;;;;;9.18;2.42;;;;;;;;;;6188757;22;20017;-77
2021/03/26 01:03:44;;;;;;;7.53;1.95;;;;;;;;;;6188485;22;20415;-78
2021/03/26 01:06:10;;;;;;;8.85;2.85;;;;;;;;;;6188116;22;20009;-77
2021/03/26 01:08:36;;;;;;;8.77;1.73;;;;;;;;;;6187999;22;20012;-77
2021/03/26 01:11:09;;;;;;;12.70;2.05;;;;;;;;;;6213457;22;20005;-76
2021/03/26 01:13:43;;;;;;;8.40;1.75;;;;;;;;;;6214583;22;20065;-76
2021/03/26 01:16:10;;;;;;;13.60;2.65;;;;;;;;;;6212244;22;20073;-77
2021/03/26 01:18:40;;;;;;;7.50;2.05;;;;;;;;;;6212786;23;20024;-77
2021/03/26 01:21:06;;;;;;;7.18;1.67;;;;;;;;;;6213201;22;20004;-76
2021/03/26 01:23:33;;;;;;;8.95;1.95;;;;;;;;;;6187988;22;20077;-77
2021/03/26 01:25:59;;;;;;;14.77;2.47;;;;;;;;;;6190336;22;20005;-76
2021/03/26 01:28:26;;;;;;;7.45;1.83;;;;;;;;;;6216057;22;20008;-77
2021/03/26 01:30:52;;;;;;;8.57;1.90;;;;;;;;;;6214959;22;20005;-77
2021/03/26 01:33:19;;;;;;;9.13;1.67;;;;;;;;;;6215477;22;20013;-77
2021/03/26 01:35:46;;;;;;;6.63;1.90;;;;;;;;;;6217396;22;20004;-77
2021/03/26 01:38:12;;;;;;;8.38;2.03;;;;;;;;;;6191650;22;20017;-75
2021/03/26 01:40:40;;;;;;;8.68;2.10;;;;;;;;;;6196376;22;20064;-77
2021/03/26 01:43:11;;;;;;;6.20;2.30;;;;;;;;;;6223746;22;20001;-77
2021/03/26 01:45:37;;;;;;;20.40;4.63;;;;;;;;;;6222388;22;20005;-77
2021/03/26 01:48:06;;;;;;;9.38;2.80;;;;;;;;;;6218068;22;20065;-76
2021/03/26 01:50:33;;;;;;;8.20;2.35;;;;;;;;;;6219663;22;20005;-78
2021/03/26 01:52:59;;;;;;;5.38;1.85;;;;;;;;;;6218211;23;20001;-76
2021/03/26 01:55:27;;;;;;;13.48;2.83;;;;;;;;;;6195138;22;20016;-76
2021/03/26 01:58:30;;;;;;;8.32;2.28;;;;;;;;;;6222219;22;20008;-78
2021/03/26 02:00:58;;;;;;;9.80;3.22;;;;;;;;;;6218691;22;19996;-78
2021/03/26 02:03:44;;;;;;;7.07;2.05;;;;;;;;;;6217348;22;20011;-77
2021/03/26 02:06:10;;;;;;;7.82;2.33;;;;;;;;;;6216536;22;20001;-78
2021/03/26 02:08:38;;;;;;;6.78;1.95;;;;;;;;;;6214440;22;20015;-78
2021/03/26 02:11:07;;;;;;;10.50;2.17;;;;;;;;;;6215424;22;20015;-78
2021/03/26 02:13:34;;;;;;;11.10;2.08;;;;;;;;;;6216424;22;20012;-77
2021/03/26 02:16:08;;;;;;;6.40;1.83;;;;;;;;;;6218519;22;20008;-77
2021/03/26 02:18:36;;;;;;;6.80;2.43;;;;;;;;;;6218609;22;20005;-77
2021/03/26 02:21:25;;;;;;;7.82;2.50;;;;;;;;;;6216698;22;20232;-78
2021/03/26 02:23:52;;;;;;;14.75;3.45;;;;;;;;;;6206023;22;20011;-77
2021/03/26 02:26:22;;;;;;;7.85;2.58;;;;;;;;;;6189102;22;20001;-78
2021/03/26 02:28:49;;;;;;;7.82;2.35;;;;;;;;;;6215083;22;20019;-78
2021/03/26 02:31:15;;;;;;;8.65;3.38;;;;;;;;;;6213070;22;20327;-77
2021/03/26 02:34:00;;;;;;;10.18;3.20;;;;;;;;;;6213533;22;20013;-77
2021/03/26 02:36:32;;;;;;;10.98;3.03;;;;;;;;;;6213356;22;20058;-77
2021/03/26 02:39:00;;;;;;;13.73;3.95;;;;;;;;;;6212333;22;20009;-78
2021/03/26 02:41:40;;;;;;;11.30;3.40;;;;;;;;;;6212877;22;20009;-78
2021/03/26 02:44:14;;;;;;;14.15;3.70;;;;;;;;;;6213450;22;20012;-77
2021/03/26 02:47:03;;;;;;;8.93;2.97;;;;;;;;;;6216236;22;20004;-79
2021/03/26 02:49:38;;;;;;;11.40;3.35;;;;;;;;;;6209704;22;20427;-78
2021/03/26 02:52:08;;;;;;;7.63;3.00;;;;;;;;;;6217054;22;20093;-78
2021/03/26 02:57:49;;;;;;;11.07;3.08;;;;;;;;;;6216570;23;20015;-77
2021/03/26 03:03:29;;;;;;;11.63;4.25;;;;;;;;;;6214881;23;20507;-77
2021/03/26 03:05:57;;;;;;;9.82;3.38;;;;;;;;;;6213874;22;20392;-77
2021/03/26 03:08:29;;;;;;;8.90;3.40;;;;;;;;;;6214883;22;20430;-77
2021/03/26 03:10:58;;;;;;;9.15;4.22;;;;;;;;;;6216009;22;20028;-77
2021/03/26 03:13:34;;;;;;;10.82;4.05;;;;;;;;;;6214133;22;20005;-78
2021/03/26 03:16:08;;;;;;;14.50;3.33;;;;;;;;;;6215025;22;20000;-78
2021/03/26 03:18:37;;;;;;;11.98;3.72;;;;;;;;;;6213250;22;20004;-78
2021/03/26 03:24:09;;;;;;;8.98;4.63;;;;;;;;;;6213118;23;20073;-78
2021/03/26 03:26:40;;;;;;;11.73;4.40;;;;;;;;;;6212618;22;20026;-76
2021/03/26 03:29:36;;;;;;;11.18;4.88;;;;;;;;;;6214517;22;20013;-77
2021/03/26 03:32:14;;;;;;;11.38;4.88;;;;;;;;;;6265427;22;20005;-79
2021/03/26 03:34:42;;;;;;;15.27;5.38;;;;;;;;;;6212748;23;20084;-77
2021/03/26 03:37:25;;;;;;;11.25;5.22;;;;;;;;;;6213305;23;20012;-78
2021/03/26 03:40:03;;;;;;;9.82;5.85;;;;;;;;;;6214296;22;20008;-79
2021/03/26 03:42:29;;;;;;;15.82;5.95;;;;;;;;;;6212716;22;20373;-78
2021/03/26 03:45:16;;;;;;;18.83;6.85;;;;;;;;;;6213406;22;20008;-79
2021/03/26 03:48:00;;;;;;;14.75;7.70;;;;;;;;;;6289199;22;20021;-78
2021/03/26 03:50:26;;;;;;;17.73;7.43;;;;;;;;;;6217316;23;20001;-78
2021/03/26 03:52:58;;;;;;;17.25;8.38;;;;;;;;;;6214634;22;20061;-78
2021/03/26 03:55:29;;;;;;;17.85;7.88;;;;;;;;;;6216323;22;20009;-79
2021/03/26 03:58:14;;;;;;;14.48;7.30;;;;;;;;;;6216948;22;20000;-78
2021/03/26 04:00:43;;;;;;;15.30;7.70;;;;;;;;;;6216689;22;20005;-78
2021/03/26 04:03:12;;;;;;;15.18;6.55;;;;;;;;;;6217379;22;20009;-78
2021/03/26 04:05:38;;;;;;;13.40;8.40;;;;;;;;;;6218989;22;20008;-78
2021/03/26 04:10:57;;;;;;;14.57;7.82;;;;;;;;;;6229561;22;20024;-78
2021/03/26 04:13:34;;;;;;;19.15;8.10;;;;;;;;;;6223078;23;19996;-77
2021/03/26 04:16:01;;;;;;;21.88;8.48;;;;;;;;;;6251082;23;20003;-78
2021/03/26 04:18:30;;;;;;;20.52;8.05;;;;;;;;;;6225437;23;20008;-78
2021/03/26 04:21:01;;;;;;;12.80;8.63;;;;;;;;;;6228342;23;20035;-78
2021/03/26 04:23:31;;;;;;;18.63;9.13;;;;;;;;;;6229699;23;20004;-78
2021/03/26 04:26:02;;;;;;;16.83;8.77;;;;;;;;;;6230721;23;20045;-77
2021/03/26 04:28:41;;;;;;;17.90;9.70;;;;;;;;;;6231811;23;20008;-79
2021/03/26 04:31:10;;;;;;;15.35;8.73;;;;;;;;;;6232146;23;20008;-78
2021/03/26 04:33:36;;;;;;;22.17;9.65;;;;;;;;;;6258982;23;20004;-78
2021/03/26 04:36:03;;;;;;;14.45;8.77;;;;;;;;;;6231969;23;20012;-78
2021/03/26 04:38:49;;;;;;;17.55;9.27;;;;;;;;;;6257601;23;20414;-78
2021/03/26 04:44:31;;;;;;;17.42;9.60;;;;;;;;;;6248759;23;20083;-78
2021/03/26 04:50:33;;;;;;;20.23;10.05;;;;;;;;;;6249250;23;20379;-78
2021/03/26 04:53:03;;;;;;;19.52;10.60;;;;;;;;;;6245646;22;20422;-77
2021/03/26 04:55:34;;;;;;;19.02;9.77;;;;;;;;;;6225702;22;20103;-77
2021/03/26 04:58:02;;;;;;;14.85;9.95;;;;;;;;;;6224646;23;20040;-77
2021/03/26 05:00:30;;;;;;;17.55;10.15;;;;;;;;;;6220415;23;20004;-78
2021/03/26 05:02:59;;;;;;;17.58;10.52;;;;;;;;;;6220633;22;20087;-78
2021/03/26 05:05:26;;;;;;;20.17;10.45;;;;;;;;;;6221728;22;20039;-78
2021/03/26 05:07:55;;;;;;;18.35;10.52;;;;;;;;;;6222862;22;20019;-78
2021/03/26 05:10:23;;;;;;;24.38;11.02;;;;;;;;;;6221700;23;20023;-77
2021/03/26 05:12:54;;;;;;;21.00;11.50;;;;;;;;;;6227059;22;20001;-77
2021/03/26 05:15:26;;;;;;;20.17;12.00;;;;;;;;;;6249607;22;19996;-77
2021/03/26 05:17:54;;;;;;;22.65;10.98;;;;;;;;;;6221656;22;20468;-77
2021/03/26 05:20:23;;;;;;;18.65;10.07;;;;;;;;;;6225756;22;20012;-78
2021/03/26 05:23:11;;;;;;;21.27;11.20;;;;;;;;;;6225679;22;20418;-78
2021/03/26 05:25:39;;;;;;;17.67;10.45;;;;;;;;;;6217920;22;20019;-78
2021/03/26 05:28:11;;;;;;;17.27;11.60;;;;;;;;;;6219119;22;20004;-77
2021/03/26 05:30:39;;;;;;;20.65;11.20;;;;;;;;;;6218329;22;20083;-77
2021/03/26 05:33:14;;;;;;;28.23;11.00;;;;;;;;;;6217586;22;20016;-78
2021/03/26 05:35:40;;;;;;;;;;;;;;;;;;6219898;22;20083;-78
2021/03/26 05:38:14;;;;;;;19.05;10.23;;;;;;;;;;6244374;23;20370;-78
2021/03/26 05:40:50;;;;;;;17.67;10.52;;;;;;;;;;6218646;22;20321;-78
2021/03/26 05:43:37;;;;;;;25.15;10.90;;;;;;;;;;6218668;22;20422;-79
2021/03/26 05:46:09;;;;;;;19.20;10.77;;;;;;;;;;6219075;22;20303;-78
2021/03/26 05:48:54;;;;;;;23.17;11.73;;;;;;;;;;6246166;23;20012;-78
2021/03/26 05:51:32;;;;;;;22.10;10.93;;;;;;;;;;6245882;22;20071;-77
2021/03/26 05:54:23;;;;;;;17.63;10.38;;;;;;;;;;6222152;22;20005;-78
2021/03/26 05:57:08;;;;;;;20.20;10.15;;;;;;;;;;6218676;22;20008;-78
2021/03/26 05:59:34;;;;;;;12.43;7.82;;;;;;;;;;6249506;23;20001;-77
2021/03/26 06:02:00;;;;;;;13.83;8.90;;;;;;;;;;6252431;23;20030;-77
2021/03/26 06:04:39;;;;;;;19.45;11.13;;;;;;;;;;6225747;23;20007;-78
2021/03/26 06:07:15;;;;;;;16.63;9.60;;;;;;;;;;6226297;22;20101;-78
2021/03/26 06:09:48;;;;;;;17.73;10.45;;;;;;;;;;6223306;23;20008;-77
2021/03/26 06:12:26;;;;;;;19.30;10.27;;;;;;;;;;6250532;22;20012;-78
2021/03/26 06:18:22;;;;;;;16.33;10.57;;;;;;;;;;6154343;23;20064;-79
2021/03/26 06:20:48;;;;;;;18.90;10.23;;;;;;;;;;6155087;23;20067;-78
2021/03/26 06:23:33;;;;;;;17.23;10.47;;;;;;;;;;6134084;23;20006;-77
2021/03/26 06:26:02;;;;;;;17.98;10.88;;;;;;;;;;6129403;23;20040;-78
2021/03/26 06:28:45;;;;;;;18.60;10.47;;;;;;;;;;6128005;23;20072;-79
2021/03/26 06:31:38;;;;;;;18.17;11.70;;;;;;;;;;6284016;22;20014;-78
2021/03/26 06:37:27;;;;;;;14.75;9.55;;;;;;;;;;6248440;22;20547;-78
2021/03/26 06:40:02;;;;;;;24.70;12.57;;;;;;;;;;6226961;23;20000;-77
2021/03/26 06:42:37;;;;;;;19.35;10.98;;;;;;;;;;6227304;23;20005;-78
2021/03/26 06:48:13;;;;;;;22.47;12.37;;;;;;;;;;6236133;23;20477;-79
2021/03/26 06:50:55;;;;;;;21.30;11.48;;;;;;;;;;6187264;23;20005;-79
2021/03/26 06:53:36;;;;;;;18.77;12.60;;;;;;;;;;6162431;22;20382;-78
2021/03/26 06:56:08;;;;;;;19.90;12.02;;;;;;;;;;6163817;22;20037;-78
2021/03/26 06:58:37;;;;;;;21.35;12.73;;;;;;;;;;6167855;22;20454;-78
2021/03/26 07:01:12;;;;;;;18.23;12.77;;;;;;;;;;6187034;22;20001;-78
2021/03/26 07:03:57;;;;;;;24.07;11.60;;;;;;;;;;6160898;22;20051;-79
2021/03/26 07:06:23;;;;;;;;;;;;;;;;;;6160990;22;20554;-77
2021/03/26 07:09:01;;;;;;;21.13;11.90;;;;;;;;;;6216436;22;19911;-77
2021/03/26 07:11:42;;;;;;;24.37;12.87;;;;;;;;;;6213568;22;20044;-78
2021/03/26 07:17:25;;;;;;;21.47;11.90;;;;;;;;;;6307498;22;20087;-78
2021/03/26 07:20:26;;;;;;;17.67;9.57;;;;;;;;;;6281602;22;20007;-78
2021/03/26 07:23:11;;;;;;;26.70;12.77;;;;;;;;;;6282975;22;20003;-77
2021/03/26 07:25:56;;;;;;;24.27;13.38;;;;;;;;;;6282521;22;20372;-78
2021/03/26 07:28:37;;;;;;;24.70;13.77;;;;;;;;;;6283268;22;20210;-78
2021/03/26 07:34:07;;;;;;;28.13;13.25;;;;;;;;;;6284238;22;20058;-78
2021/03/26 07:39:43;;;;;;;23.20;13.00;;;;;;;;;;6275554;22;20349;-78
2021/03/26 07:42:12;;;;;;;23.20;14.10;;;;;;;;;;6275227;22;20010;-77
2021/03/26 07:44:44;;;;;;;22.27;13.80;;;;;;;;;;6275129;22;20006;-77
2021/03/26 07:47:34;;;;;;;17.43;8.30;;;;;;;;;;6260801;22;20088;-77
2021/03/26 07:50:06;;;;;;;23.03;13.30;;;;;;;;;;6155076;23;20001;-77
2021/03/26 07:52:38;;;;;;;21.70;12.67;;;;;;;;;;6155145;23;20018;-78
2021/03/26 07:55:19;;;;;;;22.33;13.50;;;;;;;;;;6154974;23;20040;-77
2021/03/26 07:58:04;;;;;;;25.87;11.27;;;;;;;;;;6154673;23;20016;-76
2021/03/26 08:00:48;;;;;;;26.55;13.23;;;;;;;;;;6180847;23;20005;-76
2021/03/26 08:03:21;;;;;;;21.05;12.35;;;;;;;;;;6132108;23;20025;-77
2021/03/26 08:05:47;;;;;;;18.90;12.03;;;;;;;;;;6210964;23;20450;-76
2021/03/26 08:08:16;;;;;;;21.60;10.97;;;;;;;;;;6212487;23;20008;-77
2021/03/26 08:10:48;;;;;;;19.50;12.80;;;;;;;;;;6212405;23;20037;-77
2021/03/26 08:13:26;;;;;;;20.83;11.57;;;;;;;;;;6216565;22;20041;-76
2021/03/26 08:15:55;;;;;;;16.80;11.73;;;;;;;;;;6218193;22;20433;-77
2021/03/26 08:18:40;;;;;;;17.98;9.77;;;;;;;;;;6245920;22;20004;-77
2021/03/26 08:21:18;;;;;;;18.17;11.43;;;;;;;;;;6216481;23;20363;-76
2021/03/26 08:23:47;;;;;;;20.02;9.88;;;;;;;;;;6217088;22;20059;-76
2021/03/26 08:26:25;;;;;;;18.60;8.77;;;;;;;;;;6243917;23;20008;-76
2021/03/26 08:28:57;;;;;;;19.10;11.02;;;;;;;;;;6244167;23;20061;-76
2021/03/26 08:31:29;;;;;;;22.50;11.37;;;;;;;;;;6218268;22;20008;-77
2021/03/26 08:34:08;;;;;;;21.37;11.37;;;;;;;;;;6218403;22;20011;-75
2021/03/26 08:36:41;;;;;;;19.97;10.17;;;;;;;;;;6245687;23;20007;-76
2021/03/26 08:39:10;;;;;;;22.43;9.77;;;;;;;;;;6218530;22;20064;-75
2021/03/26 08:41:37;;;;;;;17.93;10.97;;;;;;;;;;6220028;23;20000;-77
2021/03/26 08:44:04;;;;;;;16.93;9.13;;;;;;;;;;6221298;22;20005;-76
2021/03/26 08:46:43;;;;;;;17.90;10.00;;;;;;;;;;6224209;22;20046;-76
2021/03/26 08:49:21;;;;;;;12.65;6.53;;;;;;;;;;6224886;22;20083;-76
2021/03/26 08:52:06;;;;;;;19.50;10.40;;;;;;;;;;6223062;23;20004;-76
2021/03/26 08:54:42;;;;;;;15.02;8.60;;;;;;;;;;6245297;22;20049;-77
2021/03/26 08:57:08;;;;;;;13.75;9.55;;;;;;;;;;6219184;23;20047;-76
2021/03/26 08:59:41;;;;;;;21.03;10.93;;;;;;;;;;6246425;23;20001;-77
2021/03/26 09:02:31;;;;;;;15.85;9.50;;;;;;;;;;6220373;22;20041;-76
2021/03/26 09:05:00;;;;;;;12.90;8.37;;;;;;;;;;6220638;23;20005;-76
2021/03/26 09:07:29;;;;;;;23.60;9.85;;;;;;;;;;6222144;23;20000;-76
2021/03/26 09:09:55;;;;;;;17.67;8.38;;;;;;;;;;6250224;23;20008;-77
2021/03/26 09:12:27;;;;;;;18.95;8.43;;;;;;;;;;6222174;23;20047;-77
2021/03/26 09:15:12;;;;;;;23.53;10.23;;;;;;;;;;6249458;23;20083;-77
2021/03/26 09:17:47;;;;;;;18.08;9.25;;;;;;;;;;6222644;22;20057;-76
2021/03/26 09:20:13;;;;;;;;;;;;;;;;;;6249085;23;20057;-76
2021/03/26 09:22:57;;;;;;;17.75;8.55;;;;;;;;;;6221416;22;19903;-76
2021/03/26 09:25:44;;;;;;;18.67;7.78;;;;;;;;;;6223240;23;20015;-75
2021/03/26 09:28:33;;;;;;;11.57;8.05;;;;;;;;;;6219088;23;20008;-77
2021/03/26 09:31:02;;;;;;;13.90;7.88;;;;;;;;;;6216813;23;20011;-76
2021/03/26 09:33:28;;;;;;;15.20;5.97;;;;;;;;;;6244224;23;20003;-77
2021/03/26 09:36:03;;;;;;;19.10;6.63;;;;;;;;;;6217519;23;20057;-77
2021/03/26 09:38:29;;;;;;;;;;;;;;;;;;6218811;23;20409;-76
2021/03/26 09:41:04;;;;;;;21.27;8.15;;;;;;;;;;6216420;22;19930;-76
2021/03/26 09:43:32;;;;;;;17.17;6.93;;;;;;;;;;6246891;23;19996;-76
2021/03/26 09:46:04;;;;;;;17.70;7.07;;;;;;;;;;6217711;23;20004;-76
2021/03/26 09:48:30;;;;;;;12.73;6.13;;;;;;;;;;6217619;23;20334;-77
2021/03/26 09:51:09;;;;;;;21.67;6.32;;;;;;;;;;6244218;23;20004;-77
2021/03/26 09:53:39;;;;;;;15.18;9.05;;;;;;;;;;6219219;23;20005;-76
2021/03/26 09:56:36;;;;;;;17.25;8.23;;;;;;;;;;6220006;23;20036;-76
2021/03/26 09:59:02;;;;;;;17.67;7.68;;;;;;;;;;6249063;23;20038;-76
2021/03/26 10:01:33;;;;;;;17.85;7.88;;;;;;;;;;6221771;23;20000;-76
2021/03/26 10:04:06;;;;;;;12.88;7.70;;;;;;;;;;6221860;23;20367;-77
2021/03/26 10:06:46;;;;;;;16.70;7.15;;;;;;;;;;6220640;23;20008;-76
2021/03/26 10:09:36;;;;;;;13.75;7.45;;;;;;;;;;6220105;23;20012;-76
2021/03/26 10:12:08;;;;;;;14.07;6.57;;;;;;;;;;6220405;23;20027;-76
2021/03/26 10:14:36;;;;;;;13.05;7.00;;;;;;;;;;6220620;23;20005;-76
2021/03/26 10:17:05;;;;;;;14.65;6.45;;;;;;;;;;6220044;23;20091;-78
2021/03/26 10:19:39;;;;;;;17.50;6.60;;;;;;;;;;6247175;23;19996;-76
2021/03/26 10:22:17;;;;;;;9.47;5.20;;;;;;;;;;6219553;23;20057;-76
2021/03/26 10:24:46;;;;;;;8.07;4.70;;;;;;;;;;6219945;23;20057;-76
2021/03/26 10:27:31;;;;;;;8.80;4.60;;;;;;;;;;6222241;23;20430;-76
2021/03/26 10:29:59;;;;;;;10.02;5.28;;;;;;;;;;6225159;23;20065;-76
2021/03/26 10:32:30;;;;;;;11.63;5.60;;;;;;;;;;6224891;23;20000;-78
2021/03/26 10:34:59;;;;;;;8.20;4.45;;;;;;;;;;6224703;23;20007;-77
2021/03/26 10:37:28;;;;;;;8.32;4.22;;;;;;;;;;6252565;23;20020;-77
2021/03/26 10:40:03;;;;;;;12.93;4.35;;;;;;;;;;6224956;23;20010;-77
2021/03/26 10:42:41;;;;;;;10.57;4.00;;;;;;;;;;6225698;23;20001;-78
2021/03/26 10:45:28;;;;;;;7.85;3.42;;;;;;;;;;6221187;23;20004;-77
2021/03/26 10:47:56;;;;;;;8.32;3.15;;;;;;;;;;6223889;23;20012;-77
2021/03/26 10:50:28;;;;;;;10.80;2.60;;;;;;;;;;6219781;23;20004;-76
2021/03/26 10:53:03;;;;;;;10.35;4.00;;;;;;;;;;6216427;23;20004;-78
2021/03/26 10:55:33;;;;;;;7.95;3.33;;;;;;;;;;6217912;23;20053;-77
2021/03/26 10:58:05;;;;;;;8.43;2.72;;;;;;;;;;6217932;23;20004;-77
2021/03/26 11:00:37;;;;;;;9.82;3.30;;;;;;;;;;6244900;23;20010;-77
2021/03/26 11:03:03;;;;;;;11.25;3.83;;;;;;;;;;6217939;23;20040;-77
2021/03/26 11:05:34;;;;;;;8.68;3.95;;;;;;;;;;6218656;23;20016;-78
2021/03/26 11:08:00;;;;;;;12.25;4.40;;;;;;;;;;6219882;23;20016;-78
2021/03/26 11:10:38;;;;;;;8.02;3.85;;;;;;;;;;6221818;23;20004;-77
2021/03/26 11:13:15;;;;;;;11.77;4.60;;;;;;;;;;6212249;23;20016;-77
2021/03/26 11:15:47;;;;;;;7.47;3.95;;;;;;;;;;6216629;22;20005;-77
2021/03/26 11:18:13;;;;;;;9.68;4.75;;;;;;;;;;6217460;22;20012;-76
2021/03/26 11:20:58;;;;;;;11.00;5.63;;;;;;;;;;6213684;22;20445;-77
2021/03/26 11:23:27;;;;;;;8.27;4.82;;;;;;;;;;6214380;22;20030;-78
2021/03/26 11:26:30;;;;;;;12.27;5.40;;;;;;;;;;6212647;22;20009;-78
2021/03/26 11:32:14;;;;;;;9.43;4.85;;;;;;;;;;6212946;23;20049;-76
2021/03/26 11:37:56;;;;;;;14.00;4.90;;;;;;;;;;6214151;23;20091;-77
2021/03/26 11:40:58;;;;;;;11.45;5.40;;;;;;;;;;6213946;22;20009;-76
2021/03/26 11:43:27;;;;;;;9.48;4.03;;;;;;;;;;6218193;22;20001;-76
2021/03/26 11:45:56;;;;;;;11.68;4.82;;;;;;;;;;6218440;22;20397;-75
2021/03/26 11:48:37;;;;;;;8.10;3.85;;;;;;;;;;6214578;22;20013;-76
2021/03/26 11:51:23;;;;;;;15.32;4.35;;;;;;;;;;6212145;22;20044;-77
2021/03/26 11:53:59;;;;;;;9.05;4.55;;;;;;;;;;6212726;22;20005;-76
2021/03/26 11:56:27;;;;;;;13.73;4.57;;;;;;;;;;6211827;22;20007;-76
2021/03/26 11:58:57;;;;;;;9.82;4.53;;;;;;;;;;6211007;22;20009;-75
2021/03/26 12:01:27;;;;;;;15.25;4.88;;;;;;;;;;6210690;22;20144;-77
2021/03/26 12:03:59;;;;;;;16.08;4.65;;;;;;;;;;6212382;22;20001;-75
2021/03/26 12:06:35;;;;;;;7.72;4.50;;;;;;;;;;6211332;22;19996;-75
2021/03/26 12:09:13;;;;;;;11.55;4.78;;;;;;;;;;6212663;22;20012;-76
2021/03/26 12:11:58;;;;;;;13.63;4.15;;;;;;;;;;6211767;22;20017;-76
2021/03/26 12:14:24;;;;;;;;;;;;;;;;;;6213693;22;20005;-76
2021/03/26 12:17:01;;;;;;;11.68;4.13;;;;;;;;;;6212856;22;20226;-75
2021/03/26 12:19:27;;;;;;;8.45;3.78;;;;;;;;;;6215693;22;20001;-76
2021/03/26 12:22:03;;;;;;;10.05;3.97;;;;;;;;;;6214222;22;20083;-76
2021/03/26 12:24:34;;;;;;;10.25;4.40;;;;;;;;;;6213538;22;20011;-79
2021/03/26 12:27:03;;;;;;;7.15;4.03;;;;;;;;;;6214029;23;20001;-77
2021/03/26 12:29:29;;;;;;;9.25;3.60;;;;;;;;;;6211900;22;20387;-79
2021/03/26 12:32:04;;;;;;;13.40;2.92;;;;;;;;;;6213581;22;20323;-78
2021/03/26 12:34:49;;;;;;;11.82;3.70;;;;;;;;;;6212573;22;20007;-77
2021/03/26 12:37:15;;;;;;;;;;;;;;;;;;6213967;22;20007;-78
2021/03/26 12:39:43;;;;;;;16.17;3.20;;;;;;;;;;6211747;22;19903;-78
2021/03/26 12:42:21;;;;;;;14.05;3.67;;;;;;;;;;6212861;22;20005;-76
2021/03/26 12:44:56;;;;;;;8.07;2.88;;;;;;;;;;6212167;22;20299;-78
2021/03/26 12:47:24;;;;;;;7.80;2.60;;;;;;;;;;6211904;22;20109;-78
2021/03/26 12:50:11;;;;;;;6.30;2.90;;;;;;;;;;6211937;22;20486;-75
2021/03/26 12:53:12;;;;;;;8.88;2.63;;;;;;;;;;6216838;23;20005;-77
2021/03/26 12:55:57;;;;;;;14.10;2.85;;;;;;;;;;6251227;22;19999;-77
2021/03/26 12:59:01;;;;;;;9.68;3.40;;;;;;;;;;6239381;22;20333;-77
2021/03/26 13:01:30;;;;;;;7.80;2.92;;;;;;;;;;6276767;22;20011;-77
2021/03/26 13:03:56;;;;;;;6.30;3.28;;;;;;;;;;6276725;22;20081;-77
2021/03/26 13:06:40;;;;;;;10.20;2.83;;;;;;;;;;6254868;22;20466;-77
2021/03/26 13:09:09;;;;;;;9.82;2.92;;;;;;;;;;6211807;22;20490;-76
2021/03/26 13:11:40;;;;;;;7.53;2.75;;;;;;;;;;6214849;22;20061;-76
2021/03/26 13:14:15;;;;;;;8.95;2.75;;;;;;;;;;6220138;23;20008;-76
2021/03/26 13:16:44;;;;;;;5.53;2.60;;;;;;;;;;6244951;23;20012;-76
2021/03/26 13:19:16;;;;;;;9.05;3.17;;;;;;;;;;6245492;23;20007;-75
2021/03/26 13:21:49;;;;;;;11.60;3.63;;;;;;;;;;6217087;23;20008;-77
2021/03/26 13:24:24;;;;;;;4.57;2.83;;;;;;;;;;6218047;23;20000;-76
2021/03/26 13:27:10;;;;;;;5.63;2.80;;;;;;;;;;6218076;23;20011;-76
2021/03/26 13:29:36;;;;;;;6.80;2.88;;;;;;;;;;6218913;23;20008;-76
2021/03/26 13:32:06;;;;;;;4.97;2.63;;;;;;;;;;6195643;22;20015;-77
2021/03/26 13:34:35;;;;;;;6.45;2.67;;;;;;;;;;6219238;23;20011;-77
2021/03/26 13:37:10;;;;;;;7.57;3.10;;;;;;;;;;6246072;23;20002;-77
2021/03/26 13:39:36;;;;;;;7.40;2.58;;;;;;;;;;6221346;23;20004;-77
2021/03/26 13:42:20;;;;;;;7.47;2.60;;;;;;;;;;6247545;23;20031;-77
2021/03/26 13:44:46;;;;;;;6.90;2.83;;;;;;;;;;6220978;23;20037;-78
2021/03/26 13:47:18;;;;;;;7.18;2.50;;;;;;;;;;6217267;23;20016;-78
2021/03/26 13:49:50;;;;;;;6.38;2.60;;;;;;;;;;6217599;23;20000;-77
2021/03/26 13:52:23;;;;;;;5.18;2.70;;;;;;;;;;6217168;23;20035;-76
2021/03/26 13:54:57;;;;;;;3.80;2.08;;;;;;;;;;6217896;23;20011;-77
2021/03/26 13:57:28;;;;;;;9.05;2.95;;;;;;;;;;6243924;23;20002;-77
2021/03/26 13:59:58;;;;;;;5.40;2.20;;;;;;;;;;6217257;23;20004;-76
2021/03/26 14:02:27;;;;;;;7.00;2.40;;;;;;;;;;6243751;23;20321;-78
2021/03/26 14:05:13;;;;;;;7.00;2.33;;;;;;;;;;6217122;23;20307;-76
2021/03/26 14:07:40;;;;;;;5.72;2.00;;;;;;;;;;6219576;23;20008;-76
2021/03/26 14:10:30;;;;;;;4.88;2.00;;;;;;;;;;6192194;22;20087;-78
2021/03/26 14:12:58;;;;;;;6.28;2.33;;;;;;;;;;6208767;22;20021;-76
2021/03/26 14:15:26;;;;;;;10.52;1.75;;;;;;;;;;6213175;22;20015;-77
2021/03/26 14:17:52;;;;;;;10.25;1.92;;;;;;;;;;6212382;22;20004;-77
2021/03/26 14:20:28;;;;;;;6.32;2.17;;;;;;;;;;6211860;22;20001;-78
2021/03/26 14:23:14;;;;;;;4.07;1.80;;;;;;;;;;6212463;22;20061;-77
2021/03/26 14:25:56;;;;;;;5.05;2.00;;;;;;;;;;6217647;23;20009;-78
2021/03/26 14:28:30;;;;;;;9.45;2.78;;;;;;;;;;6214118;23;20470;-76
2021/03/26 14:31:05;;;;;;;9.57;2.13;;;;;;;;;;6212695;22;20004;-79
2021/03/26 14:33:31;;;;;;;;;;;;;;;;;;6214365;22;19996;-77
2021/03/26 14:35:59;;;;;;;9.35;2.60;;;;;;;;;;6212629;22;20292;-77
2021/03/26 14:38:37;;;;;;;5.97;2.28;;;;;;;;;;6214428;22;20072;-77
2021/03/26 14:41:08;;;;;;;5.57;2.15;;;;;;;;;;6215262;22;20005;-78
2021/03/26 14:43:34;;;;;;;7.72;2.33;;;;;;;;;;6216339;22;20009;-77
2021/03/26 14:46:02;;;;;;;9.57;2.40;;;;;;;;;;6188443;22;20062;-79
2021/03/26 14:48:44;;;;;;;11.77;2.45;;;;;;;;;;6212484;22;20058;-76
2021/03/26 14:51:16;;;;;;;3.45;1.60;;;;;;;;;;6212595;22;20028;-77
2021/03/26 14:53:45;;;;;;;5.43;2.30;;;;;;;;;;6213193;22;20007;-78
2021/03/26 14:56:18;;;;;;;8.07;3.25;;;;;;;;;;6211579;22;20005;-77
2021/03/26 14:58:56;;;;;;;10.70;2.95;;;;;;;;;;6211818;22;20005;-78
2021/03/26 15:01:29;;;;;;;5.05;2.25;;;;;;;;;;6213751;22;20444;-77
2021/03/26 15:04:04;;;;;;;5.00;2.30;;;;;;;;;;6212490;22;20007;-76
2021/03/26 15:06:49;;;;;;;4.50;2.45;;;;;;;;;;6212822;22;20058;-77
2021/03/26 15:09:23;;;;;;;7.57;2.42;;;;;;;;;;6212235;22;20069;-77
2021/03/26 15:11:56;;;;;;;5.53;2.15;;;;;;;;;;6212547;22;20001;-77
2021/03/26 15:14:24;;;;;;;8.32;2.40;;;;;;;;;;6212835;22;20020;-77
2021/03/26 15:17:09;;;;;;;8.52;3.25;;;;;;;;;;6212164;22;20024;-77
2021/03/26 15:19:35;;;;;;;;;;;;;;;;;;6213411;22;20001;-77
2021/03/26 15:22:15;;;;;;;11.88;2.33;;;;;;;;;;6214802;23;19900;-78
2021/03/26 15:24:56;;;;;;;4.15;2.00;;;;;;;;;;6215218;22;20165;-76
2021/03/26 15:27:36;;;;;;;9.60;2.42;;;;;;;;;;6214928;22;20477;-76
2021/03/26 15:30:02;;;;;;;7.50;2.50;;;;;;;;;;6213808;22;20311;-77
2021/03/26 15:32:34;;;;;;;6.85;2.60;;;;;;;;;;6213543;22;20001;-78
2021/03/26 15:35:03;;;;;;;7.28;2.78;;;;;;;;;;6211863;22;20004;-77
2021/03/26 15:37:34;;;;;;;5.45;2.38;;;;;;;;;;6212363;22;20429;-78
2021/03/26 15:40:18;;;;;;;4.82;2.75;;;;;;;;;;6216521;22;20003;-76
2021/03/26 15:42:44;;;;;;;;;;;;;;;;;;6212803;22;20000;-78
2021/03/26 15:45:12;;;;;;;5.75;2.42;;;;;;;;;;6211626;22;19908;-76
2021/03/26 15:47:47;;;;;;;5.57;2.33;;;;;;;;;;6212584;22;20436;-76
2021/03/26 15:50:17;;;;;;;3.70;2.03;;;;;;;;;;6213427;22;20406;-77
2021/03/26 15:52:49;;;;;;;5.75;2.17;;;;;;;;;;6216910;22;20011;-76
2021/03/26 15:55:22;;;;;;;4.45;2.38;;;;;;;;;;6211781;22;20022;-76
2021/03/26 15:57:57;;;;;;;5.35;2.35;;;;;;;;;;6211708;22;20008;-76